sensor_id;sensor_type;location;lat;lon;timestamp;temperature;humidity
3850;DHT22;1940;51.052;13.678;2023-03-21T00:01:28;10.50;90.10
3850;DHT22;1940;51.052;13.678;2023-03-21T00:03:54;10.50;90.20
3850;DHT22;1940;51.052;13.678;2023-03-21T00:06:19;10.60;89.80
3850;DHT22;1940;51.052;13.678;2023-03-21T00:08:46;10.60;89.70
3850;DHT22;1940;51.052;13.678;2023-03-21T00:11:12;10.50;89.70
3850;DHT22;1940;51.052;13.678;2023-03-21T00:13:38;10.50;89.40
3850;DHT22;1940;51.052;13.678;2023-03-21T00:16:10;10.50;89.40
3850;DHT22;1940;51.052;13.678;2023-03-21T00:18:43;10.40;89.80
3850;DHT22;1940;51.052;13.678;2023-03-21T00:21:13;10.40;90.20
3850;DHT22;1940;51.052;13.678;2023-03-21T00:23:42;10.40;89.90
3850;DHT22;1940;51.052;13.678;2023-03-21T00:26:09;10.40;90.20
3850;DHT22;1940;51.052;13.678;2023-03-21T00:28:36;10.20;90.80
3850;DHT22;1940;51.052;13.678;2023-03-21T00:31:02;10.10;91.90
3850;DHT22;1940;51.052;13.678;2023-03-21T00:33:28;10.10;92.30
3850;DHT22;1940;51.052;13.678;2023-03-21T00:35:54;10.00;92.40
3850;DHT22;1940;51.052;13.678;2023-03-21T00:38:20;10.00;93.10
3850;DHT22;1940;51.052;13.678;2023-03-21T00:40:46;10.00;93.30
3850;DHT22;1940;51.052;13.678;2023-03-21T00:43:12;10.00;93.60
3850;DHT22;1940;51.052;13.678;2023-03-21T00:45:45;10.00;93.60
3850;DHT22;1940;51.052;13.678;2023-03-21T00:48:11;9.90;93.80
3850;DHT22;1940;51.052;13.678;2023-03-21T00:50:37;9.80;94.30
3850;DHT22;1940;51.052;13.678;2023-03-21T00:53:03;9.70;94.60
3850;DHT22;1940;51.052;13.678;2023-03-21T00:55:29;9.70;94.70
3850;DHT22;1940;51.052;13.678;2023-03-21T00:57:55;9.70;94.80
3850;DHT22;1940;51.052;13.678;2023-03-21T01:00:20;9.60;95.10
3850;DHT22;1940;51.052;13.678;2023-03-21T01:02:46;9.60;95.10
3850;DHT22;1940;51.052;13.678;2023-03-21T01:05:27;9.70;95.20
3850;DHT22;1940;51.052;13.678;2023-03-21T01:08:12;9.80;94.80
3850;DHT22;1940;51.052;13.678;2023-03-21T01:10:44;9.80;94.40
3850;DHT22;1940;51.052;13.678;2023-03-21T01:13:12;9.90;94.40
3850;DHT22;1940;51.052;13.678;2023-03-21T01:15:43;9.90;94.10
3850;DHT22;1940;51.052;13.678;2023-03-21T01:18:09;9.90;94.10
3850;DHT22;1940;51.052;13.678;2023-03-21T01:20:35;10.00;93.90
3850;DHT22;1940;51.052;13.678;2023-03-21T01:23:01;9.90;93.90
3850;DHT22;1940;51.052;13.678;2023-03-21T01:25:27;9.90;94.10
3850;DHT22;1940;51.052;13.678;2023-03-21T01:27:52;10.00;94.00
3850;DHT22;1940;51.052;13.678;2023-03-21T01:30:19;10.00;94.00
3850;DHT22;1940;51.052;13.678;2023-03-21T01:32:45;9.90;93.90
3850;DHT22;1940;51.052;13.678;2023-03-21T01:35:11;9.80;94.00
3850;DHT22;1940;51.052;13.678;2023-03-21T01:37:36;9.80;94.00
3850;DHT22;1940;51.052;13.678;2023-03-21T01:40:02;9.90;93.90
3850;DHT22;1940;51.052;13.678;2023-03-21T01:42:29;10.00;93.60
3850;DHT22;1940;51.052;13.678;2023-03-21T01:45:01;10.00;93.50
3850;DHT22;1940;51.052;13.678;2023-03-21T01:47:27;10.10;93.20
3850;DHT22;1940;51.052;13.678;2023-03-21T01:49:56;10.00;92.80
3850;DHT22;1940;51.052;13.678;2023-03-21T01:52:27;10.00;92.80
3850;DHT22;1940;51.052;13.678;2023-03-21T01:54:54;10.00;92.80
3850;DHT22;1940;51.052;13.678;2023-03-21T01:57:29;9.90;92.90
3850;DHT22;1940;51.052;13.678;2023-03-21T01:59:58;10.00;92.80
3850;DHT22;1940;51.052;13.678;2023-03-21T02:02:30;10.00;92.50
3850;DHT22;1940;51.052;13.678;2023-03-21T02:04:56;10.00;92.40
3850;DHT22;1940;51.052;13.678;2023-03-21T02:07:34;10.00;92.20
3850;DHT22;1940;51.052;13.678;2023-03-21T02:10:03;10.00;91.90
3850;DHT22;1940;51.052;13.678;2023-03-21T02:12:30;9.80;90.50
3850;DHT22;1940;51.052;13.678;2023-03-21T02:14:56;9.80;89.70
3850;DHT22;1940;51.052;13.678;2023-03-21T02:28:21;9.30;86.50
3850;DHT22;1940;51.052;13.678;2023-03-21T02:31:17;9.20;86.30
3850;DHT22;1940;51.052;13.678;2023-03-21T02:36:51;9.20;86.30
3850;DHT22;1940;51.052;13.678;2023-03-21T02:42:04;9.30;86.00
3850;DHT22;1940;51.052;13.678;2023-03-21T02:44:41;9.00;86.60
3850;DHT22;1940;51.052;13.678;2023-03-21T02:47:13;9.10;86.90
3850;DHT22;1940;51.052;13.678;2023-03-21T02:49:46;9.10;86.80
3850;DHT22;1940;51.052;13.678;2023-03-21T02:52:19;9.20;86.80
3850;DHT22;1940;51.052;13.678;2023-03-21T02:54:46;9.30;86.60
3850;DHT22;1940;51.052;13.678;2023-03-21T02:57:15;9.30;86.20
3850;DHT22;1940;51.052;13.678;2023-03-21T02:59:43;9.30;86.10
3850;DHT22;1940;51.052;13.678;2023-03-21T03:02:09;9.30;86.10
3850;DHT22;1940;51.052;13.678;2023-03-21T03:04:35;9.30;86.20
3850;DHT22;1940;51.052;13.678;2023-03-21T03:10:10;9.00;87.40
3850;DHT22;1940;51.052;13.678;2023-03-21T03:12:48;8.90;88.00
3850;DHT22;1940;51.052;13.678;2023-03-21T03:18:38;8.90;88.30
3850;DHT22;1940;51.052;13.678;2023-03-21T03:21:16;9.00;88.20
3850;DHT22;1940;51.052;13.678;2023-03-21T03:24:07;9.10;88.20
3850;DHT22;1940;51.052;13.678;2023-03-21T03:26:42;9.00;88.30
3850;DHT22;1940;51.052;13.678;2023-03-21T03:29:13;9.00;88.50
3850;DHT22;1940;51.052;13.678;2023-03-21T03:31:45;9.00;88.50
3850;DHT22;1940;51.052;13.678;2023-03-21T03:34:14;9.00;88.40
3850;DHT22;1940;51.052;13.678;2023-03-21T03:36:43;9.10;88.40
3850;DHT22;1940;51.052;13.678;2023-03-21T03:39:13;9.20;88.20
3850;DHT22;1940;51.052;13.678;2023-03-21T03:41:51;9.10;88.30
3850;DHT22;1940;51.052;13.678;2023-03-21T03:44:18;8.90;88.70
3850;DHT22;1940;51.052;13.678;2023-03-21T03:46:52;9.00;89.00
3850;DHT22;1940;51.052;13.678;2023-03-21T03:49:23;9.10;88.90
3850;DHT22;1940;51.052;13.678;2023-03-21T03:52:09;9.10;88.70
3850;DHT22;1940;51.052;13.678;2023-03-21T03:54:38;9.10;88.70
3850;DHT22;1940;51.052;13.678;2023-03-21T03:57:05;9.10;88.60
3850;DHT22;1940;51.052;13.678;2023-03-21T03:59:36;9.10;88.50
3850;DHT22;1940;51.052;13.678;2023-03-21T04:02:01;9.00;88.60
3850;DHT22;1940;51.052;13.678;2023-03-21T04:04:27;9.00;88.60
3850;DHT22;1940;51.052;13.678;2023-03-21T04:06:53;9.00;88.90
3850;DHT22;1940;51.052;13.678;2023-03-21T04:09:21;9.00;89.10
3850;DHT22;1940;51.052;13.678;2023-03-21T04:11:46;9.00;89.20
3850;DHT22;1940;51.052;13.678;2023-03-21T04:14:13;9.00;89.30
3850;DHT22;1940;51.052;13.678;2023-03-21T04:16:39;9.00;89.70
3850;DHT22;1940;51.052;13.678;2023-03-21T04:19:05;9.00;89.80
3850;DHT22;1940;51.052;13.678;2023-03-21T04:21:30;8.90;89.70
3850;DHT22;1940;51.052;13.678;2023-03-21T04:23:56;9.00;90.00
3850;DHT22;1940;51.052;13.678;2023-03-21T04:26:22;9.00;90.10
3850;DHT22;1940;51.052;13.678;2023-03-21T04:28:54;9.00;90.10
3850;DHT22;1940;51.052;13.678;2023-03-21T04:31:20;9.00;89.50
3850;DHT22;1940;51.052;13.678;2023-03-21T04:33:46;9.00;89.80
3850;DHT22;1940;51.052;13.678;2023-03-21T04:36:12;9.00;89.80
3850;DHT22;1940;51.052;13.678;2023-03-21T04:38:49;8.90;89.70
3850;DHT22;1940;51.052;13.678;2023-03-21T04:41:15;8.90;89.90
3850;DHT22;1940;51.052;13.678;2023-03-21T04:43:40;8.90;90.20
3850;DHT22;1940;51.052;13.678;2023-03-21T04:46:06;8.90;90.20
3850;DHT22;1940;51.052;13.678;2023-03-21T04:48:32;9.00;90.00
3850;DHT22;1940;51.052;13.678;2023-03-21T04:50:57;9.00;89.70
3850;DHT22;1940;51.052;13.678;2023-03-21T04:53:23;8.90;89.80
3850;DHT22;1940;51.052;13.678;2023-03-21T04:55:48;8.90;90.10
3850;DHT22;1940;51.052;13.678;2023-03-21T04:58:14;8.90;90.40
3850;DHT22;1940;51.052;13.678;2023-03-21T05:00:39;9.00;90.40
3850;DHT22;1940;51.052;13.678;2023-03-21T05:03:05;9.00;90.00
3850;DHT22;1940;51.052;13.678;2023-03-21T05:05:37;9.00;90.00
3850;DHT22;1940;51.052;13.678;2023-03-21T05:08:04;8.90;90.00
3850;DHT22;1940;51.052;13.678;2023-03-21T05:10:30;9.00;89.40
3850;DHT22;1940;51.052;13.678;2023-03-21T05:12:55;9.00;89.00
3850;DHT22;1940;51.052;13.678;2023-03-21T05:15:21;8.90;88.50
3850;DHT22;1940;51.052;13.678;2023-03-21T05:17:46;8.80;88.00
3850;DHT22;1940;51.052;13.678;2023-03-21T05:20:13;8.70;88.10
3850;DHT22;1940;51.052;13.678;2023-03-21T05:22:40;8.70;88.60
3850;DHT22;1940;51.052;13.678;2023-03-21T05:25:09;8.80;88.40
3850;DHT22;1940;51.052;13.678;2023-03-21T05:27:35;8.80;88.30
3850;DHT22;1940;51.052;13.678;2023-03-21T05:30:11;8.90;88.10
3850;DHT22;1940;51.052;13.678;2023-03-21T05:32:37;8.90;87.70
3850;DHT22;1940;51.052;13.678;2023-03-21T05:35:04;9.00;87.90
3850;DHT22;1940;51.052;13.678;2023-03-21T05:37:30;9.00;87.50
3850;DHT22;1940;51.052;13.678;2023-03-21T05:39:55;9.10;87.40
3850;DHT22;1940;51.052;13.678;2023-03-21T05:42:21;9.10;87.50
3850;DHT22;1940;51.052;13.678;2023-03-21T05:44:47;9.10;87.40
3850;DHT22;1940;51.052;13.678;2023-03-21T05:47:14;9.10;87.10
3850;DHT22;1940;51.052;13.678;2023-03-21T05:49:40;9.10;87.20
3850;DHT22;1940;51.052;13.678;2023-03-21T05:52:05;9.10;87.20
3850;DHT22;1940;51.052;13.678;2023-03-21T05:54:31;9.10;87.20
3850;DHT22;1940;51.052;13.678;2023-03-21T05:56:56;9.10;87.20
3850;DHT22;1940;51.052;13.678;2023-03-21T05:59:22;9.20;87.40
3850;DHT22;1940;51.052;13.678;2023-03-21T06:01:47;9.20;87.20
3850;DHT22;1940;51.052;13.678;2023-03-21T06:04:13;9.20;87.50
3850;DHT22;1940;51.052;13.678;2023-03-21T06:06:38;9.20;87.50
3850;DHT22;1940;51.052;13.678;2023-03-21T06:09:04;9.20;87.50
3850;DHT22;1940;51.052;13.678;2023-03-21T06:11:33;9.30;87.70
3850;DHT22;1940;51.052;13.678;2023-03-21T06:14:00;9.30;87.50
3850;DHT22;1940;51.052;13.678;2023-03-21T06:16:25;9.40;87.30
3850;DHT22;1940;51.052;13.678;2023-03-21T06:18:53;9.50;86.50
3850;DHT22;1940;51.052;13.678;2023-03-21T06:21:18;9.50;86.00
3850;DHT22;1940;51.052;13.678;2023-03-21T06:23:45;9.60;85.60
3850;DHT22;1940;51.052;13.678;2023-03-21T06:26:11;9.60;85.30
3850;DHT22;1940;51.052;13.678;2023-03-21T06:28:37;9.70;85.50
3850;DHT22;1940;51.052;13.678;2023-03-21T06:31:02;9.80;85.30
3850;DHT22;1940;51.052;13.678;2023-03-21T06:33:28;9.70;85.00
3850;DHT22;1940;51.052;13.678;2023-03-21T06:35:55;9.80;85.00
3850;DHT22;1940;51.052;13.678;2023-03-21T06:38:21;9.80;85.10
3850;DHT22;1940;51.052;13.678;2023-03-21T06:40:48;9.70;84.90
3850;DHT22;1940;51.052;13.678;2023-03-21T06:43:14;9.70;84.80
3850;DHT22;1940;51.052;13.678;2023-03-21T06:45:41;9.80;84.80
3850;DHT22;1940;51.052;13.678;2023-03-21T06:48:06;9.90;84.80
3850;DHT22;1940;51.052;13.678;2023-03-21T06:50:32;9.90;84.50
3850;DHT22;1940;51.052;13.678;2023-03-21T06:52:57;9.80;84.10
3850;DHT22;1940;51.052;13.678;2023-03-21T06:55:24;9.70;84.80
3850;DHT22;1940;51.052;13.678;2023-03-21T06:57:52;9.80;84.80
3850;DHT22;1940;51.052;13.678;2023-03-21T07:00:18;9.80;85.00
3850;DHT22;1940;51.052;13.678;2023-03-21T07:02:45;10.00;84.60
3850;DHT22;1940;51.052;13.678;2023-03-21T07:05:10;10.00;84.20
3850;DHT22;1940;51.052;13.678;2023-03-21T07:07:36;10.00;84.00
3850;DHT22;1940;51.052;13.678;2023-03-21T07:10:03;10.10;84.00
3850;DHT22;1940;51.052;13.678;2023-03-21T07:12:28;10.00;84.00
3850;DHT22;1940;51.052;13.678;2023-03-21T07:14:58;10.10;84.40
3850;DHT22;1940;51.052;13.678;2023-03-21T07:17:24;10.20;83.70
3850;DHT22;1940;51.052;13.678;2023-03-21T07:19:49;10.20;83.50
3850;DHT22;1940;51.052;13.678;2023-03-21T07:22:15;10.20;84.00
3850;DHT22;1940;51.052;13.678;2023-03-21T07:24:40;10.40;83.90
3850;DHT22;1940;51.052;13.678;2023-03-21T07:27:06;10.40;83.20
3850;DHT22;1940;51.052;13.678;2023-03-21T07:29:31;10.20;84.20
3850;DHT22;1940;51.052;13.678;2023-03-21T07:31:57;10.20;84.80
3850;DHT22;1940;51.052;13.678;2023-03-21T07:34:22;10.10;85.20
3850;DHT22;1940;51.052;13.678;2023-03-21T07:36:48;10.10;84.90
3850;DHT22;1940;51.052;13.678;2023-03-21T07:39:13;10.20;85.00
3850;DHT22;1940;51.052;13.678;2023-03-21T07:41:39;10.40;85.10
3850;DHT22;1940;51.052;13.678;2023-03-21T07:44:04;10.50;84.60
3850;DHT22;1940;51.052;13.678;2023-03-21T07:46:30;10.60;84.00
3850;DHT22;1940;51.052;13.678;2023-03-21T07:48:55;10.60;83.80
3850;DHT22;1940;51.052;13.678;2023-03-21T07:51:21;10.60;84.20
3850;DHT22;1940;51.052;13.678;2023-03-21T07:53:46;10.60;84.20
3850;DHT22;1940;51.052;13.678;2023-03-21T07:56:13;10.80;83.60
3850;DHT22;1940;51.052;13.678;2023-03-21T07:58:38;10.90;83.00
3850;DHT22;1940;51.052;13.678;2023-03-21T08:01:04;11.00;82.40
3850;DHT22;1940;51.052;13.678;2023-03-21T08:03:30;11.10;81.30
3850;DHT22;1940;51.052;13.678;2023-03-21T08:05:58;11.00;81.90
3850;DHT22;1940;51.052;13.678;2023-03-21T08:08:24;11.20;81.80
3850;DHT22;1940;51.052;13.678;2023-03-21T08:10:50;11.20;81.40
3850;DHT22;1940;51.052;13.678;2023-03-21T08:13:15;11.80;80.80
3850;DHT22;1940;51.052;13.678;2023-03-21T08:15:41;12.40;78.30
3850;DHT22;1940;51.052;13.678;2023-03-21T08:18:07;12.90;77.30
3850;DHT22;1940;51.052;13.678;2023-03-21T08:20:33;13.20;75.50
3850;DHT22;1940;51.052;13.678;2023-03-21T08:22:59;12.80;75.90
3850;DHT22;1940;51.052;13.678;2023-03-21T08:25:24;12.70;77.10
3850;DHT22;1940;51.052;13.678;2023-03-21T08:27:50;12.30;77.30
3850;DHT22;1940;51.052;13.678;2023-03-21T08:30:19;12.10;77.90
3850;DHT22;1940;51.052;13.678;2023-03-21T08:32:45;12.10;78.30
3850;DHT22;1940;51.052;13.678;2023-03-21T08:35:13;12.20;78.70
3850;DHT22;1940;51.052;13.678;2023-03-21T08:37:40;12.30;78.00
3850;DHT22;1940;51.052;13.678;2023-03-21T08:40:12;12.20;78.00
3850;DHT22;1940;51.052;13.678;2023-03-21T08:42:39;12.10;78.40
3850;DHT22;1940;51.052;13.678;2023-03-21T08:45:06;12.00;79.00
3850;DHT22;1940;51.052;13.678;2023-03-21T08:47:32;12.10;77.90
3850;DHT22;1940;51.052;13.678;2023-03-21T08:49:58;12.10;78.30
3850;DHT22;1940;51.052;13.678;2023-03-21T08:52:24;12.00;78.60
3850;DHT22;1940;51.052;13.678;2023-03-21T08:54:50;12.00;78.90
3850;DHT22;1940;51.052;13.678;2023-03-21T08:57:15;12.10;78.30
3850;DHT22;1940;51.052;13.678;2023-03-21T08:59:41;12.20;78.40
3850;DHT22;1940;51.052;13.678;2023-03-21T09:02:07;12.40;78.30
3850;DHT22;1940;51.052;13.678;2023-03-21T09:04:33;12.40;77.30
3850;DHT22;1940;51.052;13.678;2023-03-21T09:06:59;12.40;77.60
3850;DHT22;1940;51.052;13.678;2023-03-21T09:09:27;12.60;77.80
3850;DHT22;1940;51.052;13.678;2023-03-21T09:11:53;12.90;77.50
3850;DHT22;1940;51.052;13.678;2023-03-21T09:14:18;13.00;75.80
3850;DHT22;1940;51.052;13.678;2023-03-21T09:16:44;13.20;75.90
3850;DHT22;1940;51.052;13.678;2023-03-21T09:19:10;13.60;74.20
3850;DHT22;1940;51.052;13.678;2023-03-21T09:21:37;13.70;73.80
3850;DHT22;1940;51.052;13.678;2023-03-21T09:24:03;13.90;72.70
3850;DHT22;1940;51.052;13.678;2023-03-21T09:26:31;13.80;72.90
3850;DHT22;1940;51.052;13.678;2023-03-21T09:28:58;13.90;73.50
3850;DHT22;1940;51.052;13.678;2023-03-21T09:31:25;13.70;74.00
3850;DHT22;1940;51.052;13.678;2023-03-21T09:33:52;13.80;74.00
3850;DHT22;1940;51.052;13.678;2023-03-21T09:36:19;14.10;73.30
3850;DHT22;1940;51.052;13.678;2023-03-21T09:38:47;14.10;72.80
3850;DHT22;1940;51.052;13.678;2023-03-21T09:47:23;14.40;72.50
3850;DHT22;1940;51.052;13.678;2023-03-21T09:50:01;13.80;73.60
3850;DHT22;1940;51.052;13.678;2023-03-21T09:52:42;13.70;74.90
3850;DHT22;1940;51.052;13.678;2023-03-21T09:55:30;13.50;74.50
3850;DHT22;1940;51.052;13.678;2023-03-21T09:58:44;13.40;75.10
3850;DHT22;1940;51.052;13.678;2023-03-21T10:01:02;13.40;75.60
3850;DHT22;1940;51.052;13.678;2023-03-21T10:03:32;13.50;75.50
3850;DHT22;1940;51.052;13.678;2023-03-21T10:06:10;13.70;74.60
3850;DHT22;1940;51.052;13.678;2023-03-21T10:08:39;13.90;74.40
3850;DHT22;1940;51.052;13.678;2023-03-21T10:11:18;14.10;74.00
3850;DHT22;1940;51.052;13.678;2023-03-21T10:14:35;14.00;73.70
3850;DHT22;1940;51.052;13.678;2023-03-21T10:16:39;13.80;74.30
3850;DHT22;1940;51.052;13.678;2023-03-21T10:19:10;13.90;74.10
3850;DHT22;1940;51.052;13.678;2023-03-21T10:21:38;14.00;73.70
3850;DHT22;1940;51.052;13.678;2023-03-21T10:24:11;14.20;73.60
3850;DHT22;1940;51.052;13.678;2023-03-21T10:26:37;14.20;73.50
3850;DHT22;1940;51.052;13.678;2023-03-21T10:29:03;14.20;73.50
3850;DHT22;1940;51.052;13.678;2023-03-21T10:31:29;14.40;73.10
3850;DHT22;1940;51.052;13.678;2023-03-21T10:33:58;14.70;72.10
3850;DHT22;1940;51.052;13.678;2023-03-21T10:36:29;15.00;72.50
3850;DHT22;1940;51.052;13.678;2023-03-21T10:38:55;15.20;72.20
3850;DHT22;1940;51.052;13.678;2023-03-21T10:41:22;15.60;70.90
3850;DHT22;1940;51.052;13.678;2023-03-21T10:44:11;15.60;70.30
3850;DHT22;1940;51.052;13.678;2023-03-21T10:46:52;15.50;70.50
3850;DHT22;1940;51.052;13.678;2023-03-21T10:49:17;15.40;71.10
3850;DHT22;1940;51.052;13.678;2023-03-21T10:51:47;15.70;69.70
3850;DHT22;1940;51.052;13.678;2023-03-21T10:54:16;16.10;69.40
3850;DHT22;1940;51.052;13.678;2023-03-21T10:56:56;16.50;67.90
3850;DHT22;1940;51.052;13.678;2023-03-21T10:59:23;16.30;68.10
3850;DHT22;1940;51.052;13.678;2023-03-21T11:01:52;16.00;69.70
3850;DHT22;1940;51.052;13.678;2023-03-21T11:04:23;16.10;69.10
3850;DHT22;1940;51.052;13.678;2023-03-21T11:06:55;16.20;69.40
3850;DHT22;1940;51.052;13.678;2023-03-21T11:09:23;16.20;69.20
3850;DHT22;1940;51.052;13.678;2023-03-21T11:12:08;16.30;68.00
3850;DHT22;1940;51.052;13.678;2023-03-21T11:14:39;16.40;68.50
3850;DHT22;1940;51.052;13.678;2023-03-21T11:17:28;16.40;68.40
3850;DHT22;1940;51.052;13.678;2023-03-21T11:20:00;16.20;68.20
3850;DHT22;1940;51.052;13.678;2023-03-21T11:22:38;16.00;68.50
3850;DHT22;1940;51.052;13.678;2023-03-21T11:25:07;16.20;68.60
3850;DHT22;1940;51.052;13.678;2023-03-21T11:27:34;16.10;68.30
3850;DHT22;1940;51.052;13.678;2023-03-21T11:30:01;16.10;68.90
3850;DHT22;1940;51.052;13.678;2023-03-21T11:32:36;15.90;69.30
3850;DHT22;1940;51.052;13.678;2023-03-21T11:35:13;16.00;69.90
3850;DHT22;1940;51.052;13.678;2023-03-21T11:37:45;16.20;68.70
3850;DHT22;1940;51.052;13.678;2023-03-21T11:40:27;16.20;68.80
3850;DHT22;1940;51.052;13.678;2023-03-21T11:42:58;16.40;68.30
3850;DHT22;1940;51.052;13.678;2023-03-21T11:45:30;16.70;68.30
3850;DHT22;1940;51.052;13.678;2023-03-21T11:47:58;16.60;68.60
3850;DHT22;1940;51.052;13.678;2023-03-21T11:50:37;16.40;68.30
3850;DHT22;1940;51.052;13.678;2023-03-21T11:53:36;16.30;68.90
3850;DHT22;1940;51.052;13.678;2023-03-21T11:56:21;16.30;69.00
3850;DHT22;1940;51.052;13.678;2023-03-21T12:02:13;16.80;67.50
3850;DHT22;1940;51.052;13.678;2023-03-21T12:04:53;16.50;68.80
3850;DHT22;1940;51.052;13.678;2023-03-21T12:07:35;16.20;69.70
3850;DHT22;1940;51.052;13.678;2023-03-21T12:10:24;16.40;70.10
3850;DHT22;1940;51.052;13.678;2023-03-21T12:16:15;16.50;69.70
3850;DHT22;1940;51.052;13.678;2023-03-21T12:24:22;16.40;69.00
3850;DHT22;1940;51.052;13.678;2023-03-21T12:27:07;16.50;68.90
3850;DHT22;1940;51.052;13.678;2023-03-21T12:30:00;16.50;68.70
3850;DHT22;1940;51.052;13.678;2023-03-21T12:33:13;16.30;69.50
3850;DHT22;1940;51.052;13.678;2023-03-21T12:38:40;16.20;69.70
3850;DHT22;1940;51.052;13.678;2023-03-21T12:41:23;16.10;69.70
3850;DHT22;1940;51.052;13.678;2023-03-21T12:43:57;16.10;69.50
3850;DHT22;1940;51.052;13.678;2023-03-21T12:49:06;16.40;68.90
3850;DHT22;1940;51.052;13.678;2023-03-21T12:51:38;16.50;69.20
3850;DHT22;1940;51.052;13.678;2023-03-21T12:54:27;16.60;68.90
3850;DHT22;1940;51.052;13.678;2023-03-21T12:59:53;16.90;67.10
3850;DHT22;1940;51.052;13.678;2023-03-21T13:02:32;17.10;66.60
3850;DHT22;1940;51.052;13.678;2023-03-21T13:07:42;17.30;66.20
3850;DHT22;1940;51.052;13.678;2023-03-21T13:10:14;17.20;66.30
3850;DHT22;1940;51.052;13.678;2023-03-21T13:13:25;17.10;67.00
3850;DHT22;1940;51.052;13.678;2023-03-21T13:18:48;17.70;65.80
3850;DHT22;1940;51.052;13.678;2023-03-21T13:21:28;17.90;64.80
3850;DHT22;1940;51.052;13.678;2023-03-21T13:24:17;17.90;64.40
3850;DHT22;1940;51.052;13.678;2023-03-21T13:26:47;17.70;64.70
3850;DHT22;1940;51.052;13.678;2023-03-21T13:29:30;17.60;65.40
3850;DHT22;1940;51.052;13.678;2023-03-21T13:32:06;17.50;65.90
3850;DHT22;1940;51.052;13.678;2023-03-21T13:34:33;17.60;65.40
3850;DHT22;1940;51.052;13.678;2023-03-21T13:37:00;17.60;65.50
3850;DHT22;1940;51.052;13.678;2023-03-21T13:39:27;17.50;65.80
3850;DHT22;1940;51.052;13.678;2023-03-21T13:41:54;17.60;65.30
3850;DHT22;1940;51.052;13.678;2023-03-21T13:44:31;17.50;65.90
3850;DHT22;1940;51.052;13.678;2023-03-21T13:47:03;17.60;66.10
3850;DHT22;1940;51.052;13.678;2023-03-21T13:49:36;17.70;65.70
3850;DHT22;1940;51.052;13.678;2023-03-21T13:54:52;17.80;65.10
3850;DHT22;1940;51.052;13.678;2023-03-21T13:57:36;17.90;65.10
3850;DHT22;1940;51.052;13.678;2023-03-21T14:00:27;18.00;64.80
3850;DHT22;1940;51.052;13.678;2023-03-21T14:02:59;18.10;64.70
3850;DHT22;1940;51.052;13.678;2023-03-21T14:05:29;18.20;64.70
3850;DHT22;1940;51.052;13.678;2023-03-21T14:08:02;18.20;64.30
3850;DHT22;1940;51.052;13.678;2023-03-21T14:10:38;18.10;64.40
3850;DHT22;1940;51.052;13.678;2023-03-21T14:13:08;17.70;64.90
3850;DHT22;1940;51.052;13.678;2023-03-21T14:15:47;17.60;65.60
3850;DHT22;1940;51.052;13.678;2023-03-21T14:18:18;17.60;65.80
3850;DHT22;1940;51.052;13.678;2023-03-21T14:20:50;17.40;66.10
3850;DHT22;1940;51.052;13.678;2023-03-21T14:23:16;17.20;67.50
3850;DHT22;1940;51.052;13.678;2023-03-21T14:25:42;17.20;67.90
3850;DHT22;1940;51.052;13.678;2023-03-21T14:28:23;17.30;67.00
3850;DHT22;1940;51.052;13.678;2023-03-21T14:30:58;17.40;67.40
3850;DHT22;1940;51.052;13.678;2023-03-21T14:33:31;17.40;68.70
3850;DHT22;1940;51.052;13.678;2023-03-21T14:35:59;17.20;68.20
3850;DHT22;1940;51.052;13.678;2023-03-21T14:38:31;17.00;68.30
3850;DHT22;1940;51.052;13.678;2023-03-21T14:40:57;16.90;69.00
3850;DHT22;1940;51.052;13.678;2023-03-21T14:43:24;17.10;68.40
3850;DHT22;1940;51.052;13.678;2023-03-21T14:45:51;17.10;68.30
3850;DHT22;1940;51.052;13.678;2023-03-21T14:48:18;17.10;67.60
3850;DHT22;1940;51.052;13.678;2023-03-21T14:50:48;17.20;67.40
3850;DHT22;1940;51.052;13.678;2023-03-21T14:53:19;17.00;67.10
3850;DHT22;1940;51.052;13.678;2023-03-21T14:55:50;17.10;67.40
3850;DHT22;1940;51.052;13.678;2023-03-21T14:58:17;17.00;67.70
3850;DHT22;1940;51.052;13.678;2023-03-21T15:00:47;17.00;68.10
3850;DHT22;1940;51.052;13.678;2023-03-21T15:03:16;16.90;68.10
3850;DHT22;1940;51.052;13.678;2023-03-21T15:05:43;16.80;67.70
3850;DHT22;1940;51.052;13.678;2023-03-21T15:08:15;16.80;68.20
3850;DHT22;1940;51.052;13.678;2023-03-21T15:10:41;16.80;68.00
3850;DHT22;1940;51.052;13.678;2023-03-21T15:13:19;16.80;68.30
3850;DHT22;1940;51.052;13.678;2023-03-21T15:15:46;16.70;68.80
3850;DHT22;1940;51.052;13.678;2023-03-21T15:18:17;16.70;69.10
3850;DHT22;1940;51.052;13.678;2023-03-21T15:20:46;16.50;69.40
3850;DHT22;1940;51.052;13.678;2023-03-21T15:23:22;16.60;69.70
3850;DHT22;1940;51.052;13.678;2023-03-21T15:25:50;16.50;69.90
3850;DHT22;1940;51.052;13.678;2023-03-21T15:28:17;16.40;70.30
3850;DHT22;1940;51.052;13.678;2023-03-21T15:30:50;16.40;70.40
3850;DHT22;1940;51.052;13.678;2023-03-21T15:33:17;16.40;70.10
3850;DHT22;1940;51.052;13.678;2023-03-21T15:36:07;16.30;70.80
3850;DHT22;1940;51.052;13.678;2023-03-21T15:38:35;16.20;71.30
3850;DHT22;1940;51.052;13.678;2023-03-21T15:41:26;16.00;71.50
3850;DHT22;1940;51.052;13.678;2023-03-21T15:44:11;15.90;72.20
3850;DHT22;1940;51.052;13.678;2023-03-21T15:52:13;15.60;73.70
3850;DHT22;1940;51.052;13.678;2023-03-21T15:54:48;15.50;73.80
3850;DHT22;1940;51.052;13.678;2023-03-21T15:57:29;15.40;73.90
3850;DHT22;1940;51.052;13.678;2023-03-21T16:02:42;15.40;74.30
3850;DHT22;1940;51.052;13.678;2023-03-21T16:05:30;15.40;74.20
3850;DHT22;1940;51.052;13.678;2023-03-21T16:08:20;15.40;74.10
3850;DHT22;1940;51.052;13.678;2023-03-21T16:10:47;15.40;74.10
3850;DHT22;1940;51.052;13.678;2023-03-21T16:13:16;15.50;74.20
3850;DHT22;1940;51.052;13.678;2023-03-21T16:15:41;15.40;73.60
3850;DHT22;1940;51.052;13.678;2023-03-21T16:18:13;15.30;74.20
3850;DHT22;1940;51.052;13.678;2023-03-21T16:20:42;15.30;74.20
3850;DHT22;1940;51.052;13.678;2023-03-21T16:23:10;15.20;74.50
3850;DHT22;1940;51.052;13.678;2023-03-21T16:25:36;15.10;74.50
3850;DHT22;1940;51.052;13.678;2023-03-21T16:28:02;15.00;74.90
3850;DHT22;1940;51.052;13.678;2023-03-21T16:30:27;14.90;75.20
3850;DHT22;1940;51.052;13.678;2023-03-21T16:32:53;14.90;75.30
3850;DHT22;1940;51.052;13.678;2023-03-21T16:35:19;14.90;75.50
3850;DHT22;1940;51.052;13.678;2023-03-21T16:37:44;14.80;75.50
3850;DHT22;1940;51.052;13.678;2023-03-21T16:40:21;14.90;75.50
3850;DHT22;1940;51.052;13.678;2023-03-21T16:42:48;14.90;75.50
3850;DHT22;1940;51.052;13.678;2023-03-21T16:45:13;14.80;75.50
3850;DHT22;1940;51.052;13.678;2023-03-21T16:47:39;14.70;75.70
3850;DHT22;1940;51.052;13.678;2023-03-21T16:50:27;14.70;75.90
3850;DHT22;1940;51.052;13.678;2023-03-21T16:52:54;14.60;76.20
3850;DHT22;1940;51.052;13.678;2023-03-21T16:55:20;14.70;76.20
3850;DHT22;1940;51.052;13.678;2023-03-21T16:57:46;14.70;76.30
3850;DHT22;1940;51.052;13.678;2023-03-21T17:00:14;14.70;76.30
3850;DHT22;1940;51.052;13.678;2023-03-21T17:02:43;14.70;76.10
3850;DHT22;1940;51.052;13.678;2023-03-21T17:05:09;14.70;76.20
3850;DHT22;1940;51.052;13.678;2023-03-21T17:07:36;14.70;76.10
3850;DHT22;1940;51.052;13.678;2023-03-21T17:10:03;14.70;76.00
3850;DHT22;1940;51.052;13.678;2023-03-21T17:12:28;14.70;76.10
3850;DHT22;1940;51.052;13.678;2023-03-21T17:14:54;14.70;76.20
3850;DHT22;1940;51.052;13.678;2023-03-21T17:17:19;14.70;75.80